Tiempo atmosférico en la estación meteorológica de Córdoba Aeropuerto, Córdoba (90 m.)



Fecha
DESCASC
Temp. máxima en grados centígrados (hora)
DESCASC
Temp. mínima en grados centígrados (hora)
DESCASC
Temp. media en grados centígrados
DESCASC
Racha de viento máxima en m/sg (hora)
DESCASC
Velocidad máxima media en intervalos de 10 minutos(hora)
DESCASC
Precipitaciones diarias en mm
DESCASC
Precipitaciones de 00:00 a 06:00 en mm
DESCASC
Precipitaciones de 06:00 a 12:00 en mm
DESCASC
Precipitaciones de 12:00 a 18:00 en mm
DESCASC
Precipitaciones de 18:00 a 24:00 en mm
DESCASC
29-10-2020 -- (--) -- (--) -- -- (--) -- (--) -- -- 0 0 0
28-10-2020 23 (16:00) 7.4 (04:40) 15.2 7.78 (10:30) 5.28 (10:10) 0 0 0 0 0
27-10-2020 20.3 (16:10) 5.3 (00:00) 12.8 -- (--) -- (--) 0 0 0 0 0
26-10-2020 19.8 (15:40) 8.4 (00:00) 14.1 10.83 (15:50) 5 (15:50) 0 0 0 0 0
25-10-2020 19.2 (14:50) 10.3 (00:00) 14.8 15.28 (23:20) 8.89 (21:50) 2.7 0 0 0 2.7
24-10-2020 20.9 (17:20) 10.7 (00:00) 15.8 5 (16:40) 3.61 (18:20) 0 0 0 0 0
23-10-2020 21.5 (17:40) 13.6 (00:00) 17.6 6.11 (13:50) 4.44 (14:40) 0 0 0 0 0
22-10-2020 18.5 (16:10) 15.7 (00:00) 17.1 9.72 (17:40) 5 (17:20) 21.4 5.4 7 3.5 5.5
21-10-2020 21.4 (15:20) 16.8 (00:00) 19.1 11.39 (10:40) 8.06 (10:30) 8.1 0.7 0 3.6 3.8
20-10-2020 28.4 (15:50) 17.3 (00:00) 22.8 25.28 (22:40) 16.67 (22:30) 8.4 0 0 0 8.4
19-10-2020 30.1 (16:40) 8.7 (00:00) 19.4 12.5 (16:10) 9.17 (16:20) 0 0 0 0 0
18-10-2020 27.9 (17:10) 6.7 (00:00) 17.3 8.33 (11:20) 5.28 (11:20) 0 0 0 0 0
17-10-2020 24.6 (17:20) 6 (00:00) 15.3 5 (12:00) 3.61 (11:20) 0 0 0 0 0
16-10-2020 24.5 (17:10) 6.3 (00:00) 15.4 8.33 (11:30) 5.83 (11:30) 0 0 0 0 0
15-10-2020 24.5 (17:40) 5.8 (00:00) 15.2 5 (11:20) 3.33 (11:20) 0 0 0 0 0
14-10-2020 24.2 (16:30) 9.2 (00:00) 16.7 11.39 (15:50) 6.94 (15:20) 0 0 0 0 0
13-10-2020 28.4 (17:20) 6.1 (00:00) 17.2 5 (17:40) 3.33 (19:00) 0 0 0 0 0
12-10-2020 25.4 (17:30) 11.9 (00:00) 18.6 12.5 (11:50) 8.61 (12:00) 0 0 0 0 0
11-10-2020 29 (16:30) 13.4 (00:00) 21.2 9.72 (16:10) 6.11 (13:00) 0 0 0 0 0
10-10-2020 32 (17:00) 12.4 (00:00) 22.2 6.11 (17:00) 3.61 (18:20) 0 0 0 0 0
09-10-2020 31 (17:10) 13.7 (00:00) 22.3 5 (12:50) 3.33 (10:30) 0 0 0 0 0
08-10-2020 33 (16:30) 11.6 (00:00) 22.3 6.11 (12:10) 3.89 (12:10) 0 0 0 0 0
07-10-2020 32.8 (17:30) 12.8 (00:00) 22.8 7.78 (11:00) 5.56 (11:00) 0 0 0 0 0
06-10-2020 29.5 (19:10) 8.7 (00:00) 19.1 5 (11:00) 3.89 (11:00) 0 0 0 0 0
05-10-2020 25 (16:10) 8.5 (00:00) 16.8 7.22 (14:00) 4.44 (17:50) 0 0 0 0 0
04-10-2020 24.7 (17:50) 7 (00:00) 15.9 10.28 (15:00) 5.83 (15:50) 0 0 0 0 0
03-10-2020 23.2 (17:20) 8.8 (00:00) 16 11.39 (16:20) 5.83 (18:20) 0 0 0 0 0
02-10-2020 21.3 (15:20) 13.7 (00:00) 17.5 20 (15:10) 12.78 (15:10) 7.4 0 0 7.4 0
01-10-2020 28.6 (16:10) 13.4 (00:00) 21 10.28 (17:10) 6.11 (17:10) 0 0 0 0 0

Gráficas

Temp. máximas Temp. mínimas Temp. medias Precipitaciones Rachas de viento máximas Velocidades máximas media en intervalos de 10 minutos

Datos horarios

Fecha y hora oficial Temperatura (ºC) Velocidad del viento (km/h) Dirección del viento Racha (km/h) Dirección de racha Precipitación (mm) Presión (hPa) Tendencia (hPa) Humedad (%)
2020-10-30 23:00:00 15.8 5 Sudoeste -- -- 0 1013 0.9 80
2020-10-30 22:00:00 16.5 3 Sudoeste 5 Sudoeste 0 1012.7 0.9 75
2020-10-30 21:00:00 17.3 7 Sudoeste 9 Sur 0 1012.4 -- 70
2020-10-30 20:00:00 17.7 8 Oeste 11 Oeste 0 1012.1 -- 72
2020-10-30 19:00:00 20.6 3 Oeste 8 Sudoeste 0 1011.8 -- 60
2020-10-30 18:00:00 23.7 -- -- -- -- 0 1011.6 -- 46
2020-10-30 17:00:00 26.8 8 Oeste 11 Oeste 0 1011.4 -- 35
2020-10-30 16:00:00 28.3 4 Sur 8 Sur 0 1011.6 -- 31
2020-10-30 15:00:00 27.3 5 Sudeste 13 Este 0 1011.8 -- 33
2020-10-30 14:00:00 25.5 8 Este 18 Este 0 1012.6 -- 40
2020-10-30 13:00:00 23.5 14 Este 28 Este 0 1013.5 -- 46
2020-10-30 12:00:00 21.3 17 Este 24 Este 0 1014.2 -- 55
2020-10-30 11:00:00 18.9 17 Este 22 Este 0 1014.6 -- 64
2020-10-30 10:00:00 15.8 10 Este 17 Este 0 1014.9 -- 78
2020-10-30 09:00:00 13.2 8 Este 11 Este 0 1014.7 -- 87
2020-10-30 08:00:00 10 7 Este 9 Este 0 1014.2 -- 93
2020-10-30 07:00:00 9.6 0 Calma 4 Noroeste 0 1014.1 -- 92
2020-10-30 06:00:00 9.8 0 Calma 5 Oeste 0 1014 -- 92
2020-10-30 05:00:00 10.4 0 Calma 8 Sudeste 0 1013.8 -- 90
2020-10-30 04:00:00 10.7 2 Oeste 8 Sudoeste 0 1013.8 -- 89
2020-10-30 03:00:00 11.5 0 Calma 8 Sur 0 1013.8 -- 89
2020-10-30 02:00:00 11.9 3 Norte 5 Norte 0 1013.7 -- 88
2020-10-30 01:00:00 12.6 3 Nordeste 8 Este 0 1013.9 -- 88
2020-10-30 00:00:00 13.5 4 Nordeste 11 Este 0 1014.2 -- 87
2020-10-29 23:00:00 14.5 2 Sudeste 8 Sur 0 1014 -- 83
2020-10-29 22:00:00 15.4 2 Oeste 13 Noroeste 0 1013.7 -- 80
2020-10-29 21:00:00 15.5 4 Oeste 11 Sur 0 1013.2 -- 80
2020-10-29 20:00:00 18.5 2 Oeste -- -- 0 1012.8 -- 68
2020-10-29 19:00:00 21.2 2 Sudeste 9 Norte 0 1012.2 -- 56
2020-10-29 18:00:00 25.9 4 Norte 9 Nordeste 0 1011.8 -- 37
2020-10-29 17:00:00 26.4 7 Nordeste 11 Este 0 1011.9 -- 35
2020-10-29 16:00:00 26.4 7 Este 18 Nordeste 0 1012.1 -- 36
2020-10-29 15:00:00 25.1 12 Nordeste 21 Nordeste 0 1012.5 -- 41
2020-10-29 14:00:00 23.8 13 Nordeste 22 Nordeste 0 1013.3 -- 46
2020-10-29 13:00:00 22.8 14 Este 26 Este 0 1014.2 -- 50
2020-10-29 12:00:00 21.1 18 Este 28 Este 0 1015 -- 57
2020-10-29 11:00:00 18.8 13 Este 24 Este 0 1015.2 -- 67
2020-10-29 10:00:00 16.4 14 Este 21 Este 0 1015.2 -- 76
2020-10-29 09:00:00 13.7 14 Este 21 Este 0 1014.8 -- 84
2020-10-29 08:00:00 11 3 Este 18 Este 0 1014.2 -- 91
2020-10-29 07:00:00 11.1 14 Nordeste 18 Este 0 1013.9 -- 95
2020-10-29 06:00:00 9.8 3 Nordeste 5 Nordeste 0 1013.6 -- 94
2020-10-29 05:00:00 10 -- -- -- -- -- 1013.4 -- 94
2020-10-29 04:00:00 10.7 -- -- -- -- -- 1013.1 -- 93
2020-10-29 03:00:00 -- -- -- -- -- -- -- -- --
2020-10-29 02:00:00 11.3 3 Nordeste 5 Nordeste 0 1013.2 -- 92
2020-10-29 01:00:00 11.8 0 Calma -- -- 0 1013.1 -- 90
2020-10-29 00:00:00 12.2 3 Sur 8 Sudoeste 0 1013.2 -- 90
2020-10-28 23:00:00 13.1 3 Oeste 8 Noroeste 0 1013.3 -- 89
2020-10-28 22:00:00 13.7 3 Sur 5 Este 0 1013.1 -- 86
2020-10-28 21:00:00 15 3 Este 5 Oeste 0 1012.6 -- 83
2020-10-28 20:00:00 16.5 5 Oeste 8 Oeste 0 1012.3 -- 74
2020-10-28 19:00:00 18.1 7 Noroeste 11 Noroeste 0 1011.5 -- 66
2020-10-28 18:00:00 22.1 4 Oeste 8 Sudoeste 0 1011 -- 51
2020-10-28 17:00:00 22.6 5 Oeste 9 Oeste 0 1011 -- 46
2020-10-28 16:00:00 22.9 4 Sudeste 9 Sudeste 0 1011.1 -- 43
2020-10-28 15:00:00 21.7 5 Este 17 Sudeste 0 1011.2 -- 45
2020-10-28 14:00:00 20.4 10 Este 22 Este 0 1011.9 -- 48
2020-10-28 13:00:00 18.9 15 Este 26 Este 0 1012.5 -- 53
2020-10-28 12:00:00 16.8 18 Este 26 Este 0 1013.4 -- 59
2020-10-28 11:00:00 14.6 14 Este 28 Este 0 1013.3 -- 67
2020-10-28 10:00:00 13.3 15 Este 24 Este 0 1013.3 -- 73
2020-10-28 09:00:00 10.8 12 Este 17 Este 0 1012.9 -- 87
2020-10-28 08:00:00 7.7 2 Nordeste 5 Sudeste 0 1012.4 -- 93
2020-10-28 07:00:00 7.5 0 Calma 5 Sudeste 0 1012 -- 93
2020-10-28 06:00:00 7.8 4 Nordeste 5 Nordeste 0 1011.6 -- 93
2020-10-28 05:00:00 7.5 0 Calma 5 Sudoeste 0 1011.2 -- 92
2020-10-28 04:00:00 7.7 2 Sudoeste 4 Sudoeste 0 1011.2 -- 92
2020-10-28 03:00:00 8.4 3 Oeste 8 Noroeste 0 1011.3 -- 92
2020-10-28 02:00:00 8.6 4 Sudoeste 5 Sudoeste 0 1011.1 -- 91
2020-10-28 01:00:00 9.4 -- -- -- -- 0 1011 -- 89
2020-10-28 00:00:00 10.2 0 Calma 5 Sur 0 1011.2 -- 89
2020-10-27 23:00:00 11 0 Calma 5 Oeste 0 1011.5 -- 86
2020-10-27 22:00:00 11.7 0 Calma 8 Este 0 1011.3 -- 84
2020-10-27 21:00:00 12.7 4 Nordeste 5 Nordeste 0 1011.1 -- 78
2020-10-27 20:00:00 13.8 6 Este 8 Este 0 1010.8 -- 74
2020-10-27 19:00:00 16.7 0 Calma 4 Noroeste 0 1010 -- 63
2020-10-27 18:00:00 19.4 3 Sudoeste 9 Sur 0 1009.7 -- 44
2020-10-27 17:00:00 20.1 2 Sur 13 Sudoeste 0 1009.7 -- 39
2020-10-27 16:00:00 20 5 Sudoeste 13 Oeste 0 1010 -- 40
2020-10-27 15:00:00 19.4 4 Sudoeste 11 Sur 0 1010.2 -- 38
2020-10-27 14:00:00 18.5 5 Sudeste 13 Sur 0 1011.2 -- 45
2020-10-27 13:00:00 16.6 4 Sudeste 21 Este 0 1012 -- 58
2020-10-27 12:00:00 14.1 5 Este 13 Este 0 1012.8 -- 64
2020-10-27 11:00:00 13 6 Este 15 Este 0 1013.1 -- 69
2020-10-27 10:00:00 10.1 8 Este 13 Este 0 1013.2 -- 82
2020-10-27 09:00:00 8.6 4 Este 8 Sudeste 0 1013 -- 91
2020-10-27 08:00:00 5.3 2 Nordeste 5 Este 0 1012.4 -- 93
2020-10-27 07:00:00 5.5 3 Sudeste -- -- 0 1011.9 -- 93
2020-10-27 06:00:00 5.7 2 Noroeste -- -- 0 1012.1 -- 93
2020-10-27 05:00:00 5.8 4 Sudoeste -- -- 0 1011.6 -- 93
2020-10-27 04:00:00 6.3 3 Sudoeste -- -- 0 1011.7 -- 92
2020-10-27 03:00:00 6.9 0 Calma 5 Norte 0 1012 -- 92
2020-10-27 02:00:00 7.3 3 Sudoeste 5 Sur 0 1012.2 -- 91
2020-10-27 01:00:00 7.9 -- -- -- -- 0 1012.3 -- 89
2020-10-27 00:00:00 8.5 4 Sudoeste -- -- 0 1012.6 -- 88
2020-10-26 23:00:00 9.1 4 Oeste 9 Sudeste 0 1012.6 -- 87
2020-10-26 22:00:00 10.1 0 Calma 8 Sur 0 1012.1 -- 85
2020-10-26 21:00:00 10.9 5 Sur 9 Sur 0 1011.7 -- 80
2020-10-26 20:00:00 12.2 5 Este 8 Sudeste 0 1011.3 -- 71
2020-10-26 19:00:00 15.1 0 Calma 18 Norte 0 1010.5 -- 54
2020-10-26 18:00:00 17.5 14 Noroeste 24 Norte 0 1010 -- 43
2020-10-26 17:00:00 17.6 13 Norte 28 Noroeste 0 1009.8 -- 42
2020-10-26 16:00:00 18.9 16 Noroeste 39 Noroeste 0 1009.5 -- 41
2020-10-26 15:00:00 19.2 8 Norte 26 Norte 0 1009.3 -- 36
2020-10-26 14:00:00 18.8 11 Norte 28 Noroeste 0 1009.6 -- 40
2020-10-26 13:00:00 18.1 12 Norte 28 Norte 0 1010.2 -- 45
2020-10-26 12:00:00 16.9 14 Noroeste 24 Noroeste 0 1010.6 -- 49
2020-10-26 11:00:00 15.8 14 Oeste 26 Oeste 0 1010.5 -- 63
2020-10-26 10:00:00 14.1 13 Oeste 21 Oeste 0 1010.4 -- 72
2020-10-26 09:00:00 12.6 10 Oeste 17 Oeste 0 1010.1 -- 83
2020-10-26 08:00:00 10.5 10 Oeste 15 Oeste 0 1009.1 -- 89
2020-10-26 07:00:00 10.9 12 Oeste 17 Oeste 0 1008.4 -- 86
2020-10-26 06:00:00 12.3 10 Oeste 17 Oeste 0 1008.4 -- 83
2020-10-26 05:00:00 12.6 11 Oeste 18 Oeste 0 1007.8 -- 85
2020-10-26 04:00:00 13.1 11 Oeste 21 Sudoeste 0 1007.4 -- 86
2020-10-26 03:00:00 14.3 12 Sudoeste 24 Oeste 0 1007.2 -- 83
2020-10-26 02:00:00 14.7 12 Oeste 28 Oeste 0 1006.9 -- 88
2020-10-26 01:00:00 14.9 14 Sudoeste 24 Sudoeste 0 1006.1 -- 89
2020-10-26 00:00:00 15.6 12 Sudoeste 55 Sudoeste 2.6 1005.8 -- 86
2020-10-25 23:00:00 16.5 30 Sudoeste 46 Sudoeste 0.1 1005.4 -- 91
2020-10-25 22:00:00 16.9 31 Sudoeste 46 Sudoeste 0 1006.1 -- 86
2020-10-25 21:00:00 18.1 22 Sudoeste 45 Oeste 0 1006.4 -- 74
2020-10-25 20:00:00 18.3 26 Sudoeste 45 Sudoeste 0 1007 -- 71
2020-10-25 19:00:00 18.6 19 Sudoeste 41 Sudoeste 0 1007 -- 69
2020-10-25 18:00:00 19.1 17 Sudoeste 33 Sudoeste 0 1006.9 -- 65
2020-10-25 17:00:00 19.1 8 Sudoeste 15 Oeste 0 1007.3 -- 65
2020-10-25 16:00:00 18.7 12 Oeste 21 Oeste 0 1007.9 -- 67
2020-10-25 15:00:00 18.9 13 Oeste 30 Oeste 0 1008.8 -- 63
2020-10-25 14:00:00 19 17 Oeste 26 Oeste 0 1010 -- 66
2020-10-25 13:00:00 17.1 10 Oeste 22 Oeste 0 1011.2 -- 73
2020-10-25 12:00:00 16.6 16 Oeste 24 Oeste 0 1012.1 -- 74
2020-10-25 11:00:00 15.7 8 Sudoeste 15 Oeste 0 1012.2 -- 80
2020-10-25 10:00:00 13.7 9 Noroeste 15 Oeste 0 1012.6 -- 87
2020-10-25 09:00:00 13 6 Oeste 9 Oeste 0 1012.4 -- 94
2020-10-25 08:00:00 12.6 3 Sudoeste 8 Sur 0 1012 -- 95
2020-10-25 07:00:00 12.3 3 Sur 8 Sur 0 1011.9 -- 95
2020-10-25 06:00:00 11.8 4 Sur 5 Sur 0 1012 -- 95
2020-10-25 05:00:00 11.1 4 Sur 8 Sudoeste 0 1012 -- 95
2020-10-25 04:00:00 10.3 3 Oeste 8 Sur 0 1012.1 -- 95
2020-10-25 03:00:00 10.7 0 Calma 5 Sur 0 1012.9 -- 94
2020-10-25 02:00:00 11.3 0 Calma 8 Norte 0 1013.2 -- 94
2020-10-25 01:00:00 11.9 7 Sur -- -- 0 1014.1 -- 93
2020-10-25 00:00:00 12.2 4 Sur 5 Sur 0 1013.8 -- 92
2020-10-24 23:00:00 13.3 3 Sur 8 Sur 0 1013.9 -- 89
2020-10-24 22:00:00 14.3 4 Sur 8 Sudoeste 0 1013.9 -- 89
2020-10-24 21:00:00 15.5 -- -- -- -- 0 1013.9 -- 83
2020-10-24 20:00:00 17 2 Sudoeste 13 Oeste 0 1013.7 -- 75
2020-10-24 19:00:00 19.6 9 Oeste 18 Oeste 0 1013.7 -- 64
2020-10-24 18:00:00 20.7 13 Oeste 18 Oeste 0 1013.9 -- 55
2020-10-24 17:00:00 20.7 9 Sudoeste 18 Sudoeste 0 1014.3 -- 61
2020-10-24 16:00:00 19.4 6 Oeste 13 Oeste 0 1014.7 -- 66
2020-10-24 15:00:00 18.7 6 Sudoeste 11 Oeste 0 1015.6 -- 70
2020-10-24 14:00:00 16.4 5 Este 15 Nordeste 0 1016.5 -- 79
2020-10-24 13:00:00 14.8 7 Nordeste 11 Este 0 1017.1 -- 88
2020-10-24 12:00:00 13.8 8 Nordeste 13 Norte 0 1017.4 -- 94
2020-10-24 11:00:00 12.9 9 Sudeste 13 Este 0 1017.2 -- 95
2020-10-24 10:00:00 12.6 11 Este 13 Este 0 1016.8 -- 94
2020-10-24 09:00:00 12.2 9 Nordeste 15 Nordeste 0 1016.3 -- 95
2020-10-24 08:00:00 11.9 7 Este 11 Este 0 1016.2 -- 95
2020-10-24 07:00:00 11 8 Este 11 Este 0 1016.2 -- 95
2020-10-24 06:00:00 10.9 4 Este 9 Nordeste 0 1016.1 -- 95
2020-10-24 05:00:00 11.5 3 Sudeste -- -- 0 1015.9 -- 95
2020-10-24 04:00:00 11.8 4 Nordeste 5 Nordeste 0 1016.1 -- 94
2020-10-24 03:00:00 12 0 Calma 5 Norte 0 1016.1 -- 93
2020-10-24 02:00:00 12.9 4 Nordeste 5 Norte 0 1016 -- 93
2020-10-24 01:00:00 13.5 0 Calma 4 Nordeste 0 1016 -- 92
2020-10-24 00:00:00 14.4 4 Nordeste -- -- 0 1015.8 -- 90
2020-10-23 23:00:00 15 3 Nordeste 8 Este 0 1015.3 -- 86
2020-10-23 22:00:00 15.8 5 Nordeste -- -- 0 1014.8 -- 86
2020-10-23 21:00:00 16.3 8 Este 11 Este 0 1014.3 -- 82
2020-10-23 20:00:00 17.4 5 Este 22 Noroeste 0 1013.8 -- 76
2020-10-23 19:00:00 19.3 13 Noroeste 21 Norte 0 1013.5 -- 63
2020-10-23 18:00:00 21.2 11 Sudoeste 21 Sudoeste 0 1013 -- 49
2020-10-23 17:00:00 21.1 11 Sudoeste 22 Sur 0 1012.9 -- 49
2020-10-23 16:00:00 20.5 16 Sudoeste 22 Sudoeste 0 1013 -- 53
2020-10-23 15:00:00 19.8 14 Oeste 22 Oeste 0 1013.2 -- 58
2020-10-23 14:00:00 19 13 Sudoeste 22 Sudoeste 0 1013.8 -- 68
2020-10-23 13:00:00 18.3 6 Sur 13 Sudoeste 0 1014.1 -- 70
2020-10-23 12:00:00 16.5 5 Sudoeste 11 Sudoeste 0 1014.1 -- 77
2020-10-23 11:00:00 15.5 3 Oeste 9 Noroeste 0 1013.6 -- 83
2020-10-23 10:00:00 14.8 5 Sur 8 Sur 0 1012.8 -- 90
2020-10-23 09:00:00 14.2 0 Calma 4 Oeste 0 1012 -- 93
2020-10-23 08:00:00 14.1 0 Calma 4 Sur 0 1011.4 -- 94
2020-10-23 07:00:00 13.6 0 Calma 8 Sudoeste 0 1010.9 -- 93
2020-10-23 06:00:00 14.4 6 Sudoeste 11 Sudoeste 0 1010.2 -- 93
2020-10-23 05:00:00 14.9 10 Sudoeste 15 Sudoeste 0 1009.7 -- 93
2020-10-23 04:00:00 15.1 5 Sudoeste 9 Sudoeste 0 1009.6 -- 93
2020-10-23 03:00:00 15.1 4 Sudoeste 9 Oeste 0 1009.4 -- 93
2020-10-23 02:00:00 14.7 5 Oeste 11 Oeste 0 1009.1 -- 93
2020-10-23 01:00:00 15.3 8 Sudoeste 17 Oeste 0 1008.7 -- 91
2020-10-23 00:00:00 15.8 12 Sudoeste 21 Oeste 0 1008.2 -- 90
2020-10-22 23:00:00 16.3 12 Oeste 18 Oeste 0 1007.3 -- 91
2020-10-22 22:00:00 16.1 4 Sudoeste 11 Sudoeste 0 1006.6 -- 93
2020-10-22 21:00:00 16.2 5 Norte 5 Norte 0.2 1005.9 -- 92
2020-10-22 20:00:00 16.5 0 Calma 11 Sudoeste 1.7 1004.8 -- 91
2020-10-22 19:00:00 17.1 11 Sudoeste 17 Sudoeste 3.6 1004.2 -- 89
2020-10-22 18:00:00 17 9 Oeste 35 Noroeste 3.2 1004.1 -- 90
2020-10-22 17:00:00 18 17 Nordeste 22 Nordeste 0 1002.9 -- 85
2020-10-22 16:00:00 18.1 9 Nordeste 17 Nordeste 0 1003.3 -- 84
2020-10-22 15:00:00 17 13 Nordeste 18 Este 0 1003.4 -- 89
2020-10-22 14:00:00 16.6 12 Este 17 Este 0.2 1004 -- 92
2020-10-22 13:00:00 16.1 9 Nordeste 28 Este 0.1 1004.2 -- 93
2020-10-22 12:00:00 15.9 8 Nordeste 17 Este 0.8 1004.6 -- 93
2020-10-22 11:00:00 15.8 8 Este 11 Este 2.8 1004.1 -- 92
2020-10-22 10:00:00 16.2 5 Este 9 Este 0.1 1003.2 -- 91
2020-10-22 09:00:00 16.2 4 Norte 8 Norte 0.7 1002.2 -- 88
2020-10-22 08:00:00 16.3 3 Este 15 Sur 2.5 1001.9 -- 89
2020-10-22 07:00:00 16.5 8 Norte 18 Este 0.1 1001.9 -- 91
2020-10-22 06:00:00 17 8 Este 18 Nordeste 0.1 1001.5 -- 90
2020-10-22 05:00:00 17.2 4 Nordeste 22 Sudeste 0 1001.7 -- 86
2020-10-22 04:00:00 17.2 3 Nordeste 5 Norte 0 1002.3 -- 89
2020-10-22 03:00:00 17.7 3 Este 13 Nordeste 0 1002.4 -- 85
2020-10-22 02:00:00 17.2 4 Este 13 Noroeste 0.1 1002.4 -- 92
2020-10-22 01:00:00 17.3 8 Norte 18 Sur 5.2 1002.5 -- 92
2020-10-22 00:00:00 17.5 7 Oeste 13 Oeste 1.6 1002.8 -- 92
2020-10-21 23:00:00 17.4 3 Este 9 Este 0 1002.3 -- 91
2020-10-21 22:00:00 17.4 6 Este 18 Sur 2.2 1002.1 -- 88
2020-10-21 21:00:00 18.4 6 Este 13 Oeste 0 1001.7 -- 83
2020-10-21 20:00:00 19.8 9 Oeste 15 Sudoeste 0 1001.5 -- 71
2020-10-21 19:00:00 20.6 9 Sur 21 Sur 0 1001.2 -- 72
2020-10-21 18:00:00 20.4 12 Sudoeste 30 Sur 0 1000.8 -- 73
2020-10-21 17:00:00 20.9 2 Noroeste 11 Oeste 0 1000.7 -- 77
2020-10-21 16:00:00 19.1 10 Sudoeste 30 Oeste 0.5 1000.8 -- 84
2020-10-21 15:00:00 19.8 8 Oeste 24 Sur 0.1 1001.3 -- 79
2020-10-21 14:00:00 19.2 10 Sur 22 Oeste 3 1001.9 -- 82
2020-10-21 13:00:00 20.5 21 Sudoeste 35 Sudoeste 0 1002 -- 75
2020-10-21 12:00:00 20 21 Sur 32 Sur 0 1001.8 -- 77
2020-10-21 11:00:00 18.6 24 Sudoeste 41 Sudoeste 0 1001.5 -- 81
2020-10-21 10:00:00 18.6 12 Sur 24 Sur 0 1000.5 -- 81
2020-10-21 09:00:00 17.1 14 Sur 26 Sur 0 999.8 -- 85
2020-10-21 08:00:00 17.3 17 Sur 33 Sur 0 999.3 -- 84
2020-10-21 07:00:00 17.2 19 Sur 35 Sur 0 998.8 -- 84
2020-10-21 06:00:00 17.3 18 Sur 28 Sur 0 998.1 -- 81
2020-10-21 05:00:00 17.5 16 Sur 28 Sur 0 998.1 -- 81
2020-10-21 04:00:00 16.8 7 Sur 17 Sur 0 998.4 -- 92
2020-10-21 03:00:00 17 4 Oeste 30 Sudoeste 0 998.8 -- 92
2020-10-21 02:00:00 17.5 19 Sur 33 Sudoeste 0 998.6 -- 93
2020-10-21 01:00:00 17.8 21 Sudoeste 32 Sudoeste 0.7 998.3 -- 96
2020-10-21 00:00:00 17.3 14 Oeste 76 Sudoeste 7.7 998 -- 95
2020-10-20 23:00:00 22.3 48 Sudoeste 91 Sudoeste 0.2 996.7 -- 65
2020-10-20 22:00:00 22.5 25 Sur 63 Sudoeste 0 995.7 -- 52
2020-10-20 21:00:00 19.7 9 Oeste 30 Sur 0.2 995.6 -- 71
2020-10-20 20:00:00 20.6 21 Sur 50 Sur 0.3 995.7 -- 63
2020-10-20 19:00:00 25.2 36 Sur 54 Sur 0 995.1 -- 31
2020-10-20 18:00:00 25.8 36 Sur 58 Sur 0 995.1 -- 29
2020-10-20 17:00:00 26.6 41 Sur 61 Sur 0 995.4 -- 29
2020-10-20 16:00:00 28.3 36 Sur 55 Sur 0 995.7 -- 27
2020-10-20 15:00:00 27.6 29 Sur 45 Sur 0 996.8 -- 28
2020-10-20 14:00:00 25.7 26 Sur 45 Sur 0 998.2 -- 33
2020-10-20 13:00:00 26.6 22 Sur 37 Sur 0 999.6 -- 29
2020-10-20 12:00:00 24.3 19 Sur 33 Sur 0 1001 -- 32
2020-10-20 11:00:00 23.2 20 Sur 39 Sur 0 1001.6 -- 33
2020-10-20 10:00:00 21 22 Sur 37 Sur 0 1001.6 -- 44
2020-10-20 09:00:00 19.9 5 Oeste 18 Este 0 1001.4 -0.6 51
2020-10-20 08:00:00 19.6 5 Nordeste 9 Nordeste 0 1001.2 -- 55
2020-10-20 07:00:00 19.2 5 Norte 24 Sudeste 0 1001.6 -- 55
2020-10-20 06:00:00 20 15 Sudoeste 24 Sudoeste 0 1002 -1.5 48
2020-10-20 05:00:00 19.7 8 Noroeste 18 Oeste 0 1002.8 -0.9 52
2020-10-20 04:00:00 19.5 10 Oeste 18 Oeste 0 1002.9 -- 54
2020-10-20 03:00:00 19.8 14 Oeste 18 Oeste 0 1003.5 -0.8 46
2020-10-20 02:00:00 18.9 10 Oeste 21 Oeste 0 1003.7 -0.3 37
2020-10-20 01:00:00 20.3 9 Oeste 26 Sudoeste 0 1004 -- 32
2020-10-20 00:00:00 20.5 9 Oeste 17 Oeste 0 1004.3 0.5 31
2020-10-19 23:00:00 20.8 6 Oeste 11 Oeste 0 1004 0.6 29
2020-10-19 22:00:00 22.2 10 Sur 24 Sur 0 1003.8 -- 27
2020-10-19 21:00:00 23.6 21 Sur 33 Sur 0 1003.8 -- 24
2020-10-19 20:00:00 24.3 8 Sudoeste 41 Sur 0 1003.4 0.1 23
2020-10-19 19:00:00 26 26 Sur 41 Sur 0 1002.8 -- 21
2020-10-19 18:00:00 28.1 19 Sur 28 Sur 0 1003 -- 16
2020-10-19 17:00:00 29.4 26 Sur 45 Sur 0 1003.3 -- 15
2020-10-19 16:00:00 29.4 22 Sur 35 Sur 0 1003.6 -- 15
2020-10-19 15:00:00 27.9 5 Sudeste 17 Nordeste 0 1004.4 -- 18
2020-10-19 14:00:00 25.8 9 Nordeste 21 Nordeste 0 1005.6 -- 20
2020-10-19 13:00:00 23.1 13 Este 28 Este 0 1006.5 -- 25
2020-10-19 12:00:00 20.6 17 Este 26 Este 0 1006.8 -- 30
2020-10-19 11:00:00 16.6 11 Este 18 Este 0 1007.2 -- 41
2020-10-19 10:00:00 13.3 8 Este 17 Este 0 1007.4 -- 51
2020-10-19 09:00:00 9.5 3 Sur 9 Este 0 1007.3 -- 63
2020-10-19 08:00:00 9.2 5 Este 9 Este 0 1007 -- 67
2020-10-19 07:00:00 9.6 0 Calma 9 Sudeste 0 1007 -- 65
2020-10-19 06:00:00 9.8 3 Sur 9 Este 0 1006.7 -- 65
2020-10-19 05:00:00 11.2 6 Sudeste 9 Este 0 1006.8 -- 62
2020-10-19 04:00:00 11.1 9 Este 13 Este 0 1007 -- 64
2020-10-19 03:00:00 11.7 4 Este 9 Este 0 1007.4 -- 62
2020-10-19 02:00:00 13.8 0 Calma 11 Oeste 0 1007.6 -- 52
2020-10-19 01:00:00 15.1 4 Norte 9 Este 0 1007.6 -- 48
2020-10-19 00:00:00 16.5 6 Noroeste 17 Sur 0 1007.8 -- 42
2020-10-18 23:00:00 18.7 6 Sudoeste 13 Sur 0 1007.5 -- 36
2020-10-18 22:00:00 19.7 6 Este 21 Sur 0 1007 -- 35
2020-10-18 21:00:00 20.6 13 Sur 24 Sur 0 1006.5 -- 33
2020-10-18 20:00:00 22.8 5 Este 13 Este 0 1005.8 -- 30
2020-10-18 19:00:00 26 5 Nordeste 11 Este 0 1005.7 -- 24
2020-10-18 18:00:00 27 5 Sudeste 13 Norte 0 1005.7 -- 21
2020-10-18 17:00:00 27.6 6 Sudoeste 17 Norte 0 1006.1 -- 19
2020-10-18 16:00:00 27 4 Oeste 13 Este 0 1006.5 -- 18
2020-10-18 15:00:00 25.8 6 Nordeste 15 Este 0 1007.2 -- 21
2020-10-18 14:00:00 23.8 7 Nordeste 21 Este 0 1008.2 -- 24
2020-10-18 13:00:00 21.4 15 Este 26 Nordeste 0 1008.7 -- 29
2020-10-18 12:00:00 17.7 18 Nordeste 30 Este 0 1009.1 -- 37
2020-10-18 11:00:00 14.8 17 Este 24 Este 0 1009.4 -- 48
2020-10-18 10:00:00 11.7 9 Este 15 Sudeste 0 1009.3 -- 58
2020-10-18 09:00:00 7.6 7 Este 11 Sudeste 0 1008.9 -- 70
2020-10-18 08:00:00 7.2 4 Nordeste 8 Este 0 1008.5 -- 74
2020-10-18 07:00:00 6.8 3 Sudeste 8 Este 0 1008.4 -- 71
2020-10-18 06:00:00 7 3 Este 8 Este 0 1007.9 -- 69
2020-10-18 05:00:00 7.4 2 Sur 5 Sur 0 1008.2 -- 68
2020-10-18 04:00:00 8.1 4 Sudeste 8 Sur 0 1008 -- 68
2020-10-18 03:00:00 8.2 3 Oeste 9 Sudoeste 0 1008.3 -- 67
2020-10-18 02:00:00 10 0 Calma 4 Noroeste 0 1008 -- 63
2020-10-18 01:00:00 10.6 0 Calma 4 Oeste 0 1007.8 -- 64
2020-10-18 00:00:00 11.5 4 Sudoeste 5 Sur 0 1007.6 -- 63
2020-10-17 23:00:00 13.3 0 Calma 2 Norte 0 1007.4 -- 58
2020-10-17 22:00:00 15.3 0 Calma 5 Sur 0 1007 -- 56
2020-10-17 21:00:00 17.8 4 Oeste 8 Oeste 0 1006.7 -- 42
2020-10-17 20:00:00 19.7 6 Oeste 13 Oeste 0 1006.1 -- 35
2020-10-17 19:00:00 23.6 8 Oeste 13 Oeste 0 1005.7 -- 28
2020-10-17 18:00:00 24.4 4 Sudoeste 17 Oeste 0 1005.7 -- 25
2020-10-17 17:00:00 24.3 7 Oeste 18 Sudoeste 0 1005.8 -- 25
2020-10-17 16:00:00 23.9 9 Oeste 17 Sudoeste 0 1006.1 -- 28
2020-10-17 15:00:00 22.2 6 Oeste 13 Oeste 0 1006.7 -- 31
2020-10-17 14:00:00 20.7 5 Sur 11 Sudoeste 0 1007.6 -- 33
2020-10-17 13:00:00 19.1 5 Este 15 Este 0 1008.2 -- 40
2020-10-17 12:00:00 16.6 12 Este 18 Este 0 1008.5 -- 41
2020-10-17 11:00:00 13.7 11 Este 17 Este 0 1008.6 -- 45
2020-10-17 10:00:00 11.1 9 Este 13 Este 0 1008.2 -- 53
2020-10-17 09:00:00 6.5 4 Este 9 Este 0 1007.7 -- 70
2020-10-17 08:00:00 7.2 4 Este 9 Este 0 1007.3 -- 70
2020-10-17 07:00:00 6.3 3 Nordeste 5 Este 0 1006.9 -- 72
2020-10-17 06:00:00 7 3 Sur 4 Sur 0 1006.7 -- 68
2020-10-17 05:00:00 7.3 0 Calma 4 Norte 0 1006.6 -- 64
2020-10-17 04:00:00 8 0 Calma 4 Sudoeste 0 1006.5 -- 62
2020-10-17 03:00:00 8.6 3 Sudoeste 5 Sur 0 1006.6 -- 58
2020-10-17 02:00:00 9.6 3 Sudoeste 9 Sudeste 0 1006.5 -- 52
2020-10-17 01:00:00 10 12 Sur 15 Sur 0 1006.6 -- 53
2020-10-17 00:00:00 10.8 4 Sur 8 Sudoeste 0 1006.6 -- 51
2020-10-16 23:00:00 12.2 3 Sudoeste 5 Oeste 0 1006.5 -- 48
2020-10-16 22:00:00 14.6 0 Calma 5 Sur 0 1006.1 -- 43
2020-10-16 21:00:00 16.9 2 Sur 9 Oeste 0 1005.7 0.6 33
2020-10-16 20:00:00 19.4 9 Oeste 13 Sudoeste 0 1005.2 -- 28
2020-10-16 19:00:00 23.4 8 Sudoeste 17 Oeste 0 1005 -- 20
2020-10-16 18:00:00 24.2 10 Sudoeste 21 Sur 0 1005.1 -- 18
2020-10-16 17:00:00 24.3 9 Sudoeste 22 Oeste 0 1005.4 -- 18
2020-10-16 16:00:00 24 9 Sudoeste 17 Sudoeste 0 1005.6 -- 20
2020-10-16 15:00:00 23 4 Sur 17 Este 0 1006.4 -- 22
2020-10-16 14:00:00 21.4 12 Este 22 Este 0 1007.2 -- 27
2020-10-16 13:00:00 19.7 17 Nordeste 30 Este 0 1008.1 -- 29
2020-10-16 12:00:00 17.6 17 Este 30 Este 0 1008.6 -- 34
2020-10-16 11:00:00 15 15 Este 22 Este 0 1008.6 1.2 42
2020-10-16 10:00:00 11.5 9 Este 15 Este 0 1008.3 1.2 56
2020-10-16 09:00:00 7.9 3 Nordeste 13 Este 0 1007.7 0.8 67
2020-10-16 08:00:00 7.7 10 Este 15 Este 0 1007.4 -- 67
2020-10-16 07:00:00 7.3 4 Nordeste 8 Nordeste 0 1007.1 -- 72
2020-10-16 06:00:00 8 5 Este 11 Este 0 1006.9 -- 70
2020-10-16 05:00:00 7.8 0 Calma 5 Sur 0 1007 -- 69
2020-10-16 04:00:00 8.9 3 Sudeste -- -- 0 1007.1 -- 67
2020-10-16 03:00:00 10 5 Sur 15 Nordeste 0 1007.1 -- 62
2020-10-16 02:00:00 10.9 3 Este 13 Norte 0 1006.9 -- 62
2020-10-16 01:00:00 11 3 Sur 8 Sur 0 1006.8 -- 58
2020-10-16 00:00:00 12.5 0 Calma 13 Sudoeste 0 1006.6 -- 51
2020-10-15 23:00:00 13 4 Sur 8 Sur 0 1006.1 -- 54
2020-10-15 22:00:00 15.1 0 Calma 5 Sur 0 1005.7 -- 47
2020-10-15 21:00:00 16.6 4 Sudoeste 9 Oeste 0 1005.2 -- 42
2020-10-15 20:00:00 19.2 8 Oeste 11 Oeste 0 1004.8 -- 31
2020-10-15 19:00:00 23.3 8 Sudoeste 17 Sudoeste 0 1004.4 -- 23
2020-10-15 18:00:00 24.2 6 Sudeste 15 Sur 0 1004.2 -1.4 21
2020-10-15 17:00:00 23.9 9 Sudoeste 18 Sudoeste 0 1004.4 -- 22
2020-10-15 16:00:00 23.8 7 Sudoeste 15 Oeste 0 1004.9 -- 23
2020-10-15 15:00:00 22.7 5 Sur 15 Sur 0 1005.6 -- 26
2020-10-15 14:00:00 21.6 5 Sur 13 Sur 0 1006.6 -- 30
2020-10-15 13:00:00 19.9 6 Nordeste 15 Este 0 1007.2 -- 32
2020-10-15 12:00:00 17.4 8 Este 18 Este 0 1007.8 -- 41
2020-10-15 11:00:00 14.4 10 Este 15 Este 0 1007.9 -- 51
2020-10-15 10:00:00 11.1 0 Calma 5 Oeste 0 1007.8 -- 62
2020-10-15 09:00:00 5.9 3 Oeste 5 Oeste 0 1007.2 -- 77
2020-10-15 08:00:00 6.2 0 Calma 5 Sur 0 1007 -- 75
2020-10-15 07:00:00 6.7 4 Sudoeste -- -- 0 1006.3 -- 75
2020-10-15 06:00:00 7.5 5 Sur 8 Sur 0 1005.8 -- 74
2020-10-15 05:00:00 7.9 6 Sudoeste 11 Sur 0 1005.7 -- 70
2020-10-15 04:00:00 8.7 3 Sudoeste 11 Sur 0 1005.9 -- 69
2020-10-15 03:00:00 10 3 Sudoeste 11 Sudoeste 0 1005.9 -- 63
2020-10-15 02:00:00 11.1 6 Oeste 9 Oeste 0 1005.5 -- 62
2020-10-15 01:00:00 13.1 4 Oeste 9 Norte 0 1005 -- 55
2020-10-15 00:00:00 14.1 4 Sur 11 Sudoeste 0 1005.1 -- 52
2020-10-14 23:00:00 15 8 Sudoeste 11 Sudoeste 0 1004.6 -- 48
2020-10-14 22:00:00 16.4 10 Oeste 15 Noroeste 0 1004 -- 43
2020-10-14 21:00:00 18.1 13 Noroeste 15 Noroeste 0 1003.5 -- 37
2020-10-14 20:00:00 20 11 Noroeste 24 Oeste 0 1003 -- 32
2020-10-14 19:00:00 22.8 13 Noroeste 30 Norte 0 1002.3 -- 27
2020-10-14 18:00:00 23.5 18 Norte 33 Noroeste 0 1001.9 -- 24
2020-10-14 17:00:00 23.8 13 Noroeste 32 Noroeste 0 1001.5 -- 25
2020-10-14 16:00:00 23.6 14 Noroeste 41 Oeste 0 1001.5 -- 28
2020-10-14 15:00:00 23.5 21 Oeste 35 Oeste 0 1001.4 -- 28
2020-10-14 14:00:00 21.8 14 Sudoeste 30 Sudoeste 0 1002.3 -- 35
2020-10-14 13:00:00 19.7 10 Sudoeste 18 Sudoeste 0 1002.9 -- 48
2020-10-14 12:00:00 18.8 4 Sur 13 Sur 0 1003.1 -- 52
2020-10-14 11:00:00 16.8 6 Sur 9 Sudeste 0 1003.4 -- 59
2020-10-14 10:00:00 14.2 3 Sur 5 Sur 0 1003.3 -- 66
2020-10-14 09:00:00 9.9 4 Nordeste 8 Oeste 0 1002.5 -- 76
2020-10-14 08:00:00 10.3 5 Sudoeste 11 Oeste 0 1002 -- 72
2020-10-14 07:00:00 10.5 7 Oeste 11 Oeste 0 1001.7 -- 69
2020-10-14 06:00:00 12.2 6 Oeste 11 Oeste 0 1002 -- 60
2020-10-14 05:00:00 12.1 7 Oeste 13 Oeste 0 1001.9 -- 61
2020-10-14 04:00:00 13.4 5 Oeste 11 Oeste 0 1002.3 -- 54
2020-10-14 03:00:00 14.3 6 Sudoeste 17 Oeste 0 1002.6 -- 50
2020-10-14 02:00:00 15.3 14 Oeste 22 Sudoeste 0 1002.7 -- 49
2020-10-14 01:00:00 15.8 12 Sudoeste 17 Sudoeste 0 1002.8 -- 45
2020-10-14 00:00:00 16.1 6 Oeste 13 Sudoeste 0 1003 -- 50
2020-10-13 23:00:00 16.6 9 Oeste 11 Sudoeste 0 1003 -- 54
2020-10-13 22:00:00 18 3 Sudoeste 8 Sur 0 1002.9 -- 49
2020-10-13 21:00:00 20.3 6 Oeste 15 Oeste 0 1002.8 -- 40
2020-10-13 20:00:00 23 12 Oeste 15 Oeste 0 1002.5 -- 31
2020-10-13 19:00:00 27.2 12 Oeste 18 Oeste 0 1002.7 -- 23
2020-10-13 18:00:00 28.3 10 Oeste 18 Oeste 0 1003.1 -- 21
2020-10-13 17:00:00 28.3 9 Sudoeste 15 Oeste 0 1003.6 -- 21
2020-10-13 16:00:00 27.5 6 Sur 11 Sur 0 1004.4 -- 20
2020-10-13 15:00:00 26.5 3 Nordeste 13 Nordeste 0 1005.6 -- 18
2020-10-13 14:00:00 23.9 5 Nordeste 15 Este 0 1007 -- 22
2020-10-13 13:00:00 21.3 7 Este 15 Nordeste 0 1008 -- 27
2020-10-13 12:00:00 18.6 8 Este 17 Este 0 1008.9 -0.1 32
2020-10-13 11:00:00 15.7 9 Este 13 Este 0 1009.3 -- 41
2020-10-13 10:00:00 11.5 0 Calma 4 Este 0 1009.3 0.7 55
2020-10-13 09:00:00 6.9 0 Calma 5 Norte 0 1009 -- 65
2020-10-13 08:00:00 6.1 0 Calma 8 Sur 0 1008.6 -- 68
2020-10-13 07:00:00 6.9 2 Norte 8 Oeste 0 1008.6 -- 65
2020-10-13 06:00:00 7.1 3 Este 5 Este 0 1008.6 -1 69
2020-10-13 05:00:00 7.8 2 Oeste 5 Este 0 1008.5 -- 63
2020-10-13 04:00:00 8.5 2 Nordeste -- -- 0 1009.2 -- 59
2020-10-13 03:00:00 8.8 -- -- -- -- 0 1009.6 -0.6 59
2020-10-13 02:00:00 10.6 3 Sudeste -- -- 0 1009.7 -- 57
2020-10-13 01:00:00 -- -- -- -- -- -- -- -- --
2020-10-13 00:00:00 12.5 -- -- -- -- 0 1010.2 0.6 44
2020-10-12 23:00:00 14.2 4 Nordeste 8 Sudeste 0 1010 -- 45
2020-10-12 22:00:00 16.3 8 Este 9 Este 0 1009.7 1.2 38
2020-10-12 21:00:00 18.8 5 Nordeste 11 Norte 0 1009.6 -- 29
2020-10-12 20:00:00 21.6 4 Nordeste 18 Este 0 1008.9 -- 25
2020-10-12 19:00:00 24.4 10 Este 21 Sudeste 0 1008.5 -- 19
2020-10-12 18:00:00 -- -- -- -- -- -- -- -- --
2020-10-12 17:00:00 25 13 Este 26 Este 0 1009 -- 19
2020-10-12 16:00:00 24.5 14 Este 26 Este 0 1009.6 -- 19
2020-10-12 15:00:00 23.5 16 Este 32 Este 0 1010.7 -2.5 23
2020-10-12 14:00:00 21.9 21 Este 33 Nordeste 0 1011.6 -- 25
2020-10-12 13:00:00 20.4 23 Este 45 Este 0 1012.6 -0.9 28
2020-10-12 12:00:00 18.7 31 Nordeste 45 Este 0 1013.2 -- 31
2020-10-12 11:00:00 16.8 25 Este 37 Este 0 1013.6 -- 36
2020-10-12 10:00:00 14.6 13 Este 18 Este 0 1013.5 -- 42
2020-10-12 09:00:00 12.7 11 Este 18 Este 0 1013.3 -- 45
2020-10-12 08:00:00 12.3 12 Este 28 Este 0 1012.7 0.8 46
2020-10-12 07:00:00 13.4 17 Este 24 Este 0 1012.2 -- 43
2020-10-12 06:00:00 13 10 Este 17 Este 0 1012 0.2 44
2020-10-12 05:00:00 13.8 12 Sudeste 17 Sudeste 0 1011.9 -- 39
2020-10-12 04:00:00 -- -- -- -- -- -- -- -- --
2020-10-12 03:00:00 14.5 13 Este 21 Este 0 1011.8 -- 35
2020-10-12 02:00:00 15.2 12 Este 17 Este 0 1011.6 0.9 33
2020-10-12 01:00:00 17.4 12 Este 21 Este 0 1011.5 -- 28
2020-10-12 00:00:00 16.9 12 Este 17 Este 0 1011.2 -- 29
2020-10-11 23:00:00 19.4 10 Este 24 Nordeste 0 1010.7 2 25
2020-10-11 22:00:00 21.2 17 Nordeste 22 Este 0 1009.9 -- 22
2020-10-11 21:00:00 -- -- -- -- -- -- -- -- --
2020-10-11 20:00:00 -- -- -- -- -- -- -- -- --
2020-10-11 19:00:00 27.9 11 Este 18 Este 0 1008 -- 22
2020-10-11 18:00:00 28.6 13 Este 22 Nordeste 0 1007.8 -1.4 21
2020-10-11 17:00:00 28.8 15 Este 35 Este 0 1008.1 -2.1 20
2020-10-11 16:00:00 28.8 18 Este 30 Este 0 1008.5 -- 22
2020-10-11 15:00:00 27.9 17 Este 30 Este 0 1009.2 -- 25
2020-10-11 14:00:00 26.5 18 Este 32 Este 0 1010.2 -- 30
2020-10-11 13:00:00 25 22 Nordeste -- -- -- 1010.7 -- 33
2020-10-11 12:00:00 -- -- -- 28 Este 0 -- -- --
2020-10-11 11:00:00 20.6 16 Este 22 Este 0 1011 -- 53
2020-10-11 10:00:00 17 12 Este 17 Este 0 1010.6 -- 66
2020-10-11 09:00:00 14.3 8 Este 13 Este 0 1010 -- 81
2020-10-11 08:00:00 13.9 5 Este 8 Este 0 1009.7 -- 84
2020-10-11 07:00:00 13.7 0 Calma 5 Sur 0 1009.2 -- 80
2020-10-11 06:00:00 14.8 0 Calma 5 Nordeste 0 1008.7 -- 80
2020-10-11 05:00:00 15.3 2 Este 5 Sur 0 1008.6 -- 76
2020-10-11 04:00:00 16.7 5 Sudoeste 9 Oeste 0 1008.7 -- 72
2020-10-11 03:00:00 17.2 8 Oeste 13 Oeste 0 1008.8 -- 68
2020-10-11 02:00:00 18.3 9 Oeste 13 Oeste 0 1008.7 -- 65
2020-10-11 01:00:00 19.3 9 Oeste 11 Oeste 0 1008.6 -- 58
2020-10-11 00:00:00 19.8 4 Oeste 8 Oeste 0 1008.4 -- 55
2020-10-10 23:00:00 20.5 7 Oeste 11 Oeste 0 1008.1 -- 53
2020-10-10 22:00:00 21.6 9 Oeste 15 Oeste 0 1007.5 -- 49
2020-10-10 21:00:00 23.7 9 Oeste 11 Oeste 0 1007.4 -- 39
2020-10-10 20:00:00 26.6 8 Oeste 15 Oeste 0 1006.7 -- 30
2020-10-10 19:00:00 30.6 11 Oeste 21 Oeste 0 1006.4 -- 22
2020-10-10 18:00:00 31.8 12 Oeste 21 Oeste 0 1006.6 -- 21
2020-10-10 17:00:00 31.9 11 Sudoeste 22 Sudoeste 0 1007 -- 22
2020-10-10 16:00:00 31.2 11 Oeste 18 Oeste 0 1007.4 -- 23
2020-10-10 15:00:00 29.9 6 Oeste 13 Oeste 0 1008.3 -- 25
2020-10-10 14:00:00 27.9 4 Oeste 13 Sudoeste 0 1009.6 -- 31
2020-10-10 13:00:00 26.4 4 Sur 13 Este 0 1010.4 -- 35
2020-10-10 12:00:00 23.2 9 Nordeste 15 Nordeste 0 1010.9 -- 41
2020-10-10 11:00:00 20.5 8 Este 13 Este 0 1011.2 -- 49
2020-10-10 10:00:00 17.2 7 Este 13 Este 0 1011 -- 61
2020-10-10 09:00:00 12.7 0 Calma 8 Sudeste 0 1010.7 -- 77
2020-10-10 08:00:00 12.6 0 Calma 5 Sudoeste 0 1010.4 -- 77
2020-10-10 07:00:00 13.3 0 Calma 4 Sudeste 0 1010.1 -- 77
2020-10-10 06:00:00 13.5 2 Sur 4 Sur 0 1009.6 -- 75
2020-10-10 05:00:00 14.2 0 Calma -- -- 0 1009.7 -- 72
2020-10-10 04:00:00 14.6 0 Calma 4 Noroeste 0 1009.9 -- 70
2020-10-10 03:00:00 15.2 3 Sur 8 Oeste 0 1009.6 -- 67
2020-10-10 02:00:00 16 4 Oeste 8 Oeste 0 1009.7 -- 63
2020-10-10 01:00:00 17.5 0 Calma 9 Sudoeste 0 1009.6 -- 62
2020-10-10 00:00:00 17.8 9 Sudoeste 11 Sudoeste 0 1009.5 -- 66
2020-10-09 23:00:00 19.2 3 Oeste 4 Noroeste 0 1009.3 -- 56
2020-10-09 22:00:00 21 0 Calma 4 Sudoeste 0 1009 -- 55
2020-10-09 21:00:00 23.5 2 Sur 5 Oeste 0 1008.8 -- 45
2020-10-09 20:00:00 27.4 4 Oeste 8 Oeste 0 1008.5 -- 33
2020-10-09 19:00:00 30.9 5 Oeste 9 Oeste 0 1008.2 -- 23
2020-10-09 18:00:00 30.4 5 Oeste 11 Oeste 0 1008.4 -- 23
2020-10-09 17:00:00 30.8 3 Oeste 9 Oeste 0 1008.5 -- 22
2020-10-09 16:00:00 30 3 Oeste 11 Oeste 0 1008.8 -- 23
2020-10-09 15:00:00 29.6 4 Norte 13 Este 0 1009.8 -- 27
2020-10-09 14:00:00 27.4 6 Este 15 Este 0 1010.7 -- 31
2020-10-09 13:00:00 25.8 6 Nordeste 18 Este 0 1011.4 -- 34
2020-10-09 12:00:00 23.3 10 Nordeste 17 Este 0 1011.7 -- 40
2020-10-09 11:00:00 20.6 11 Este 17 Este 0 1012 -- 49
2020-10-09 10:00:00 17.6 9 Este 13 Nordeste 0 1011.5 -- 59
2020-10-09 09:00:00 14.7 8 Este 9 Este 0 1011.2 -- 69
2020-10-09 08:00:00 13.8 8 Este 11 Este 0 1010.7 -- 76
2020-10-09 07:00:00 14.4 9 Este 11 Este 0 1010.6 -- 74
2020-10-09 06:00:00 14.1 3 Nordeste 9 Nordeste 0 1010.4 -- 77
2020-10-09 05:00:00 14.5 2 Norte 4 Norte 0 1010.4 -- 75
2020-10-09 04:00:00 15.3 0 Calma 4 Sur 0 1010.3 -- 71
2020-10-09 03:00:00 16 3 Sur 8 Sur 0 1010.4 -- 66
2020-10-09 02:00:00 17.1 3 Oeste 8 Sudoeste 0 1010.3 -- 62
2020-10-09 01:00:00 18.9 5 Oeste 13 Sur 0 1010.6 -- 53
2020-10-09 00:00:00 19.4 3 Norte 8 Noroeste 0 1010.2 -- 52
2020-10-08 23:00:00 20.9 0 Calma 8 Norte 0 1010 -- 45
2020-10-08 22:00:00 23.6 3 Este 8 Noroeste 0 1009.5 -- 37
2020-10-08 21:00:00 25.3 2 Sudoeste 9 Sur 0 1008.9 -- 30
2020-10-08 20:00:00 28.4 6 Sur 13 Sudoeste 0 1008.5 -- 25
2020-10-08 19:00:00 31.7 12 Sudoeste 17 Sudoeste 0 1008.2 -- 19
2020-10-08 18:00:00 32.4 4 Norte 13 Norte 0 1008.1 -- 19
2020-10-08 17:00:00 32.7 6 Sudoeste 15 Sudoeste 0 1008.3 -- 19
2020-10-08 16:00:00 31.9 4 Oeste 13 Nordeste 0 1008.6 -- 20
2020-10-08 15:00:00 31.2 5 Sur 13 Sudeste 0 1009.5 -- 21
2020-10-08 14:00:00 29.1 6 Este 15 Nordeste 0 1010.5 -- 26
2020-10-08 13:00:00 26.9 10 Este 22 Este 0 1011.2 -- 31
2020-10-08 12:00:00 23.7 12 Este 17 Este 0 1011.6 -- 39
2020-10-08 11:00:00 20.1 11 Este 15 Este 0 1012 -- 48
2020-10-08 10:00:00 17 6 Este 11 Nordeste 0 1011.7 -- 59
2020-10-08 09:00:00 12 3 Este 9 Este 0 1011 -- 73
2020-10-08 08:00:00 12.1 7 Este 9 Este 0 1010.6 -- 76
2020-10-08 07:00:00 12.2 4 Este 5 Este 0 1010.4 -- 76
2020-10-08 06:00:00 12.1 0 Calma 4 Sudeste 0 1010.1 -- 74
2020-10-08 05:00:00 12.6 0 Calma 4 Sudoeste 0 1010 -- 71
2020-10-08 04:00:00 13.4 3 Sur 8 Sur 0 1010.2 -- 71
2020-10-08 03:00:00 13.8 2 Sudoeste 5 Sur 0 1010.2 -- 68
2020-10-08 02:00:00 15 4 Nordeste 8 Nordeste 0 1010.3 -- 66
2020-10-08 01:00:00 15.9 4 Nordeste 8 Este 0 1010.2 -- 63
2020-10-08 00:00:00 16.5 3 Sudoeste 13 Sur 0 1010 -- 58
2020-10-07 23:00:00 18.1 3 Oeste -- -- 0 1009.3 -- 56
2020-10-07 22:00:00 20.4 0 Calma 8 Nordeste 0 1008.9 -- 45
2020-10-07 21:00:00 23.4 3 Nordeste 5 Nordeste 0 1008.7 -- 36
2020-10-07 20:00:00 28.4 0 Calma -- -- 0 1008.3 -- 28
2020-10-07 19:00:00 31.6 5 Este 11 Nordeste 0 1007.9 -- 17
2020-10-07 18:00:00 32.2 3 Este 13 Nordeste 0 1007.9 -- 14
2020-10-07 17:00:00 32.2 6 Este 18 Este 0 1008.4 -- 16
2020-10-07 16:00:00 31.6 7 Este 18 Este 0 1009 -- 21
2020-10-07 15:00:00 30.1 12 Este 26 Este 0 1009.9 -- 28
2020-10-07 14:00:00 28.4 12 Este 22 Este 0 1011 -- 30
2020-10-07 13:00:00 26.5 17 Este 28 Este 0 1011.7 -- 33
2020-10-07 12:00:00 23.6 18 Este 26 Este 0 1012 -- 42
2020-10-07 11:00:00 20.5 20 Este 28 Este 0 1012.1 -- 53
2020-10-07 10:00:00 17.5 12 Este 22 Este 0 1012 -- 63
2020-10-07 09:00:00 14.2 8 Este 13 Nordeste 0 1011.5 -- 77
2020-10-07 08:00:00 13.5 9 Este 15 Nordeste 0 1011.3 -- 79
2020-10-07 07:00:00 13.1 8 Nordeste 11 Nordeste 0 1011.2 -- 83
2020-10-07 06:00:00 13.2 4 Este 8 Este 0 1011.1 -- 81
2020-10-07 05:00:00 13.3 4 Sudeste 5 Sudeste 0 1010.9 -- 76
2020-10-07 04:00:00 13.8 0 Calma 8 Sur 0 1011.1 -- 76
2020-10-07 03:00:00 14.7 0 Calma 4 Este 0 1010.7 -- 77
2020-10-07 02:00:00 15.4 3 Oeste 5 Sur 0 1011.1 -- 71
2020-10-07 01:00:00 16.6 3 Sur 5 Sur 0 1011.3 -- 71
2020-10-07 00:00:00 17.6 3 Norte 5 Noroeste 0 1011.3 -- 67
2020-10-06 23:00:00 19 3 Sur 5 Sudoeste 0 1011.1 -- 62
2020-10-06 22:00:00 20.6 0 Calma 5 Sudoeste 0 1011 -- 59
2020-10-06 21:00:00 22.8 4 Sur 8 Noroeste 0 1010.4 -- 52
2020-10-06 20:00:00 26.3 7 Noroeste -- -- 0 1009.9 -- 37
2020-10-06 19:00:00 29.2 2 Oeste 11 Norte 0 1009.6 -- 30
2020-10-06 18:00:00 28.7 4 Noroeste 13 Sudoeste 0 1009.5 -- 30
2020-10-06 17:00:00 28.4 3 Nordeste 13 Nordeste 0 1009.9 -- 31
2020-10-06 16:00:00 27.8 5 Nordeste 15 Norte 0 1010.7 -- 32
2020-10-06 15:00:00 26.2 6 Norte 15 Nordeste 0 1011.6 -- 35
2020-10-06 14:00:00 24.8 8 Nordeste 15 Nordeste 0 1012.8 -- 38
2020-10-06 13:00:00 22.3 9 Este 17 Nordeste 0 1013.5 -- 41
2020-10-06 12:00:00 19.8 9 Este 18 Nordeste 0 1013.9 -- 46
2020-10-06 11:00:00 17.3 14 Este 18 Nordeste 0 1013.7 -- 55
2020-10-06 10:00:00 14.4 6 Este 11 Nordeste 0 1013.5 -- 65
2020-10-06 09:00:00 9.1 0 Calma 8 Sudoeste 0 1012.7 -- 85
2020-10-06 08:00:00 9.2 0 Calma 5 Sudoeste 0 1012.6 -- 81
2020-10-06 07:00:00 9.1 4 Oeste 5 Oeste 0 1012.4 -- 82
2020-10-06 06:00:00 10 2 Oeste 4 Oeste 0 1011.8 -- 78
2020-10-06 05:00:00 9.9 2 Sudoeste 8 Sudoeste 0 1011.5 -- 78
2020-10-06 04:00:00 10.5 3 Sudeste 8 Sudoeste 0 1011.5 -- 77
2020-10-06 03:00:00 11.2 5 Sudeste 8 Sur 0 1011.6 -- 75
2020-10-06 02:00:00 11.5 2 Noroeste 9 Sur 0 1011.3 -- 71
2020-10-06 01:00:00 12.4 3 Noroeste 9 Sudoeste 0 1011.3 -- 69
2020-10-06 00:00:00 13.7 3 Sur 8 Sur 0 1011 -- 66
2020-10-05 23:00:00 15.4 4 Sur 8 Sur 0 1010.8 -- 64
2020-10-05 22:00:00 17.3 2 Noroeste 11 Norte 0 1010 -- 51
2020-10-05 21:00:00 18.8 9 Norte 11 Norte 0 1009.4 -- 46
2020-10-05 20:00:00 21.6 10 Noroeste 18 Noroeste 0 1008.9 -- 37
2020-10-05 19:00:00 24.5 12 Noroeste 26 Noroeste 0 1008.1 -- 29
2020-10-05 18:00:00 24.4 13 Norte 24 Norte 0 1007.6 -- 27
2020-10-05 17:00:00 24.5 15 Norte 26 Noroeste 0 1007.8 -- 28
2020-10-05 16:00:00 24.5 7 Norte 22 Noroeste 0 1007.7 -- 28
2020-10-05 15:00:00 23.5 8 Noroeste 24 Sudoeste 0 1008.1 -0.9 31
2020-10-05 14:00:00 22 12 Sudoeste 26 Sudoeste 0 1008.5 -0.4 36
2020-10-05 13:00:00 21 5 Sur 18 Oeste 0 1009 0.8 39
2020-10-05 12:00:00 18.4 8 Oeste 13 Sudoeste 0 1009 -- 50
2020-10-05 11:00:00 16.4 5 Sudoeste 9 Oeste 0 1008.9 -- 58
2020-10-05 10:00:00 13.2 5 Sur 9 Sudeste 0 1008.2 -- 73
2020-10-05 09:00:00 9.2 4 Sur 8 Oeste 0 1007.7 -- 86
2020-10-05 08:00:00 8.9 7 Sudoeste 9 Oeste 0 1006.9 -- 85
2020-10-05 07:00:00 9.7 6 Sudoeste 11 Oeste 0 1006.4 -- 83
2020-10-05 06:00:00 11.2 0 Calma 11 Sudeste 0 1005.7 -- 76
2020-10-05 05:00:00 12.1 6 Sur 11 Oeste 0 1005.4 -- 77
2020-10-05 04:00:00 13.1 5 Noroeste 11 Norte 0 1005.1 -- 74
2020-10-05 03:00:00 14.2 10 Oeste 17 Oeste 0 1004.9 -- 70
2020-10-05 02:00:00 14.6 10 Sudoeste 17 Sudoeste 0 1004.8 -- 74
2020-10-05 01:00:00 15.4 10 Oeste 15 Oeste 0 1004.4 -- 71
2020-10-05 00:00:00 16.4 6 Sudoeste 11 Sur 0 1004.2 -- 64
2020-10-04 23:00:00 18.5 8 Oeste 35 Oeste 0 1004.1 -- 54
2020-10-04 22:00:00 19.3 7 Sudoeste 21 Sudoeste 0 1003.4 -- 55
2020-10-04 21:00:00 19.8 7 Oeste 28 Noroeste 0 1002.7 -- 57
2020-10-04 20:00:00 22 19 Noroeste 28 Noroeste 0 1002.2 -- 51
2020-10-04 19:00:00 23.3 12 Sudoeste 26 Sudoeste 0 1001.5 -- 42
2020-10-04 18:00:00 24.4 15 Sudoeste 28 Sudoeste 0 1001.5 -- 35
2020-10-04 17:00:00 24.1 19 Sudoeste 30 Sudoeste 0 1001.6 -- 34
2020-10-04 16:00:00 22.7 20 Sudoeste 32 Oeste 0 1001.8 -- 37
2020-10-04 15:00:00 22.4 21 Sudoeste 37 Sudoeste 0 1002.1 -- 39
2020-10-04 14:00:00 21.1 13 Oeste 32 Oeste 0 1003 -- 43
2020-10-04 13:00:00 19.9 13 Sudoeste 21 Sudoeste 0 1003.6 -- 47
2020-10-04 12:00:00 17.4 6 Sudoeste 13 Sudoeste 0 1003.9 -- 59
2020-10-04 11:00:00 15.3 2 Este 8 Nordeste 0 1004 -- 64
2020-10-04 10:00:00 12.5 2 Sudeste 5 Sudeste 0 1004.1 -- 75
2020-10-04 09:00:00 8.1 0 Calma 5 Sur 0 1003.7 -- 90
2020-10-04 08:00:00 7.4 0 Calma 5 Norte 0 1003.2 -- 87
2020-10-04 07:00:00 7.7 0 Calma 5 Sur 0 1003.1 -- 85
2020-10-04 06:00:00 8.2 0 Calma 9 Sudoeste 0 1003 -- 85
2020-10-04 05:00:00 8.6 2 Sur -- -- 0 1003.1 -- 83
2020-10-04 04:00:00 9.4 4 Sur 8 Sur 0 1003.2 -- 81
2020-10-04 03:00:00 10.5 3 Sur 4 Sur 0 1003.5 -- 77
2020-10-04 02:00:00 11.5 0 Calma 9 Noroeste 0 1003.2 -- 72
2020-10-04 01:00:00 12.5 4 Oeste 11 Sur 0 1003.1 -- 64
2020-10-04 00:00:00 13.4 4 Sur 11 Sur 0 1003 -- 59
2020-10-03 23:00:00 14.6 4 Sur 9 Noroeste 0 1002.6 -- 57
2020-10-03 22:00:00 15.7 4 Sudoeste 9 Sudoeste 0 1002.3 -- 52
2020-10-03 21:00:00 16.4 5 Noroeste 11 Noroeste 0 1001.5 -- 51
2020-10-03 20:00:00 19.5 9 Noroeste 22 Noroeste 0 1000.8 -- 36
2020-10-03 19:00:00 22.1 12 Oeste 30 Oeste 0 1000.2 -- 26
2020-10-03 18:00:00 23 19 Oeste 28 Sudoeste 0 1000.3 -- 24
2020-10-03 17:00:00 23 14 Sudoeste 41 Oeste 0 1000.7 -- 25
2020-10-03 16:00:00 22.2 15 Oeste 30 Oeste 0 1000.8 -- 27
2020-10-03 15:00:00 21.4 15 Oeste 30 Oeste 0 1001.2 -- 31
2020-10-03 14:00:00 20.5 14 Oeste 35 Oeste 0 1001.8 -- 33
2020-10-03 13:00:00 19 12 Sudoeste 26 Sudoeste 0 1002.2 -- 46
2020-10-03 12:00:00 16.6 13 Sur 22 Sudoeste 0 1002.3 -- 57
2020-10-03 11:00:00 14.5 16 Sudoeste 22 Oeste 0 1002.1 -- 66
2020-10-03 10:00:00 12.6 11 Sudoeste 18 Sudoeste 0 1001.4 -- 72
2020-10-03 09:00:00 10.2 14 Sudoeste 21 Sudoeste 0 1000.4 -- 82
2020-10-03 08:00:00 9.6 6 Oeste 18 Sudoeste 0 1000 -- 83
2020-10-03 07:00:00 9.9 9 Sudoeste 13 Sudoeste 0 999.4 -- 81
2020-10-03 06:00:00 9.5 5 Noroeste 15 Sudoeste 0 998.8 -- 82
2020-10-03 05:00:00 9.5 10 Sudoeste 15 Sudoeste 0 998.4 -- 81
2020-10-03 04:00:00 10.2 11 Sudoeste 17 Sudoeste 0 998.5 -- 77
2020-10-03 03:00:00 10.8 10 Sudoeste 18 Sudoeste 0 998.1 -- 73
2020-10-03 02:00:00 11.3 14 Sudoeste 18 Oeste 0 998.2 -- 75
2020-10-03 01:00:00 13.4 10 Sudoeste 26 Sudoeste 0 997.9 -- 63
2020-10-03 00:00:00 13.9 12 Sudoeste 30 Oeste 0 997.5 -- 63
2020-10-02 23:00:00 14.3 17 Oeste 28 Oeste 0 996.7 -- 67
2020-10-02 22:00:00 14.7 9 Oeste 18 Oeste 0 996.1 -- 66
2020-10-02 21:00:00 16.2 11 Oeste 39 Noroeste 0 995.5 -- 61
2020-10-02 20:00:00 17.1 16 Oeste 45 Noroeste 0 994.5 -- 60
2020-10-02 19:00:00 17.8 25 Noroeste 52 Noroeste 0 993.4 -- 66
2020-10-02 18:00:00 18.8 30 Oeste 59 Oeste 0 992.4 -- 66
2020-10-02 17:00:00 19.2 30 Oeste 52 Oeste 0.6 991.5 -- 75
2020-10-02 16:00:00 19.1 31 Oeste 72 Oeste 4.9 991 -- 93
2020-10-02 15:00:00 20.9 44 Sudoeste 67 Sudoeste 0 990.6 -- 74
2020-10-02 14:00:00 18.8 31 Sudoeste 45 Oeste 0.7 992.5 -- 88
2020-10-02 13:00:00 17.7 24 Oeste 52 Sudoeste 1.2 993.6 -- 89
2020-10-02 12:00:00 17.1 29 Sudoeste 52 Sudoeste 0 994.7 -- 86
2020-10-02 11:00:00 17.6 24 Sudoeste 48 Oeste 0 995.6 -- 75
2020-10-02 10:00:00 17 21 Sudoeste 37 Sudoeste 0 996.4 -- 71
2020-10-02 09:00:00 16.1 15 Sudoeste 32 Sudoeste 0 997 -- 72
2020-10-02 08:00:00 16 15 Sudoeste 30 Sudoeste 0 997.2 -- 71
2020-10-02 07:00:00 16.1 14 Sudoeste 21 Oeste 0 997.5 -- 68
2020-10-02 06:00:00 17.5 13 Sudoeste 28 Oeste 0 997.8 -- 61
2020-10-02 05:00:00 18.1 19 Oeste 28 Oeste 0 998.8 -- 59
2020-10-02 04:00:00 16.8 9 Sudoeste 15 Sudoeste 0 999.3 -- 69
2020-10-02 03:00:00 18.3 10 Sudoeste 15 Sudoeste 0 999.5 -- 63
2020-10-02 02:00:00 19.1 9 Oeste 18 Oeste 0 1000 -- 60
2020-10-02 01:00:00 18.6 8 Oeste 17 Oeste 0 1000.6 -- 63
2020-10-02 00:00:00 20.5 13 Sudoeste 18 Sudoeste 0 1000.9 -- 56
2020-10-01 23:00:00 21.9 12 Oeste 18 Oeste 0 1001 -- 52
2020-10-01 22:00:00 23.2 13 Oeste 32 Sudoeste 0 1000.5 -- 53
2020-10-01 21:00:00 25 18 Sudoeste 28 Sudoeste 0 1000 -- 40
2020-10-01 20:00:00 26.2 15 Oeste 28 Oeste 0 999.6 -- 36
2020-10-01 19:00:00 27.6 13 Sudoeste 30 Oeste 0 999.6 -- 31
2020-10-01 18:00:00 28.3 22 Sudoeste 37 Oeste 0 1000.1 -- 30
2020-10-01 17:00:00 28.5 19 Sudoeste 32 Sudoeste 0 1000.5 -- 28
2020-10-01 16:00:00 28.1 17 Sudoeste 30 Sudoeste 0 1001.1 -- 29
2020-10-01 15:00:00 26.4 14 Oeste 26 Sudoeste 0 1002.2 -- 34
2020-10-01 14:00:00 24.9 14 Sudoeste 26 Sudoeste 0 1003.3 -- 40
2020-10-01 13:00:00 23.3 18 Sudoeste 26 Sudoeste 0 1004 -- 50
2020-10-01 12:00:00 20.7 13 Oeste 21 Oeste 0 1004.6 -- 62
2020-10-01 11:00:00 17.9 12 Oeste 18 Oeste 0 1004.7 -- 81
2020-10-01 10:00:00 15.2 10 Oeste 15 Noroeste 0 1004.5 -- 93
2020-10-01 09:00:00 13.7 10 Sudoeste 15 Sudoeste 0 1004.2 -- 89
2020-10-01 08:00:00 13.6 0 Calma 5 Oeste 0 1003.6 -- 87
2020-10-01 07:00:00 14.1 2 Sudoeste 8 Sudoeste 0 1003.4 -- 87
2020-10-01 06:00:00 14.6 5 Oeste 8 Oeste 0 1003.4 -- 84
2020-10-01 05:00:00 15.8 6 Oeste 11 Noroeste 0 1003.4 -- 83
2020-10-01 04:00:00 16.6 2 Sudeste 9 Oeste 0 1003.7 -- 79
2020-10-01 03:00:00 17.7 7 Oeste 11 Oeste 0 1004.3 -- 76
2020-10-01 02:00:00 18.6 10 Oeste 13 Oeste 0 1004.2 -- 70
2020-10-01 01:00:00 19.6 10 Oeste -- -- 0 1004.3 -- 66
2020-10-01 00:00:00 20.5 5 Oeste 13 Sudoeste 0 1004.3 -- 57